Time;durP1;ratioP1;P1;durP2;ratioP2;P2;SDS_P1;SDS_P2;PMS_P1;PMS_P2;Temp;Humidity;BMP_temperature;BMP_pressure;BME280_temperature;BME280_humidity;BME280_pressure;Samples;Min_cycle;Max_cycle;Signal;HPM_P1;HPM_P2
2023/04/08 00:00:02;;;;;;;;;;;6.70;89.60;;;;;;5018748;28;19949;-91
2023/04/08 00:02:28;;;;;;;;;;;6.70;90.00;;;;;;5011573;28;19909;-91
2023/04/08 00:04:53;;;;;;;;;;;6.60;90.10;;;;;;5010652;28;20058;-92
2023/04/08 00:07:19;;;;;;;;;;;6.50;90.00;;;;;;5029922;28;19924;-91
2023/04/08 00:09:47;;;;;;;;;;;6.60;90.10;;;;;;5024488;28;20007;-90
2023/04/08 00:12:13;;;;;;;;;;;6.60;90.00;;;;;;5024454;28;19984;-90
2023/04/08 00:14:40;;;;;;;;;;;6.50;89.80;;;;;;5021454;28;19925;-91
2023/04/08 00:17:06;;;;;;;;;;;6.50;89.70;;;;;;5020133;28;20216;-93
2023/04/08 00:19:32;;;;;;;;;;;6.40;90.00;;;;;;5042316;28;19921;-91
2023/04/08 00:21:58;;;;;;;;;;;6.40;90.10;;;;;;5036015;28;20383;-91
2023/04/08 00:24:23;;;;;;;;;;;6.50;90.00;;;;;;5024222;28;19909;-90
2023/04/08 00:26:52;;;;;;;;;;;6.50;89.80;;;;;;5019062;28;19916;-92
2023/04/08 00:29:17;;;;;;;;;;;6.50;89.90;;;;;;5033655;28;19921;-90
2023/04/08 00:31:43;;;;;;;;;;;6.50;89.70;;;;;;5016640;28;19917;-91
2023/04/08 00:34:08;;;;;;;;;;;6.40;89.60;;;;;;5030623;28;19925;-91
2023/04/08 00:36:35;;;;;;;;;;;6.30;89.80;;;;;;5023457;28;19913;-90
2023/04/08 00:39:00;;;;;;;;;;;6.40;90.10;;;;;;5012498;28;19922;-90
2023/04/08 00:41:26;;;;;;;;;;;6.50;89.90;;;;;;5015658;28;19957;-90
2023/04/08 00:43:51;;;;;;;;;;;6.40;90.00;;;;;;5014378;28;20373;-90
2023/04/08 00:46:17;;;;;;;;;;;6.30;89.80;;;;;;5018014;28;19913;-91
2023/04/08 00:48:43;;;;;;;;;;;6.40;89.70;;;;;;5007191;28;19913;-90
2023/04/08 00:51:08;;;;;;;;;;;6.40;89.50;;;;;;5018641;28;20286;-90
2023/04/08 00:53:34;;;;;;;;;;;6.40;89.50;;;;;;5011994;28;19921;-90
2023/04/08 00:56:00;;;;;;;;;;;6.30;89.40;;;;;;5021475;28;19922;-94
2023/04/08 00:58:26;;;;;;;;;;;6.30;89.30;;;;;;5029928;28;19930;-91
2023/04/08 01:01:22;;;;;;;;;;;6.20;89.50;;;;;;5035301;28;20260;-90
2023/04/08 01:04:06;;;;;;;;;;;6.20;89.70;;;;;;5006199;28;19914;-91
2023/04/08 01:06:34;;;;;;;;;;;6.20;89.50;;;;;;5011384;28;19921;-91
2023/04/08 01:09:03;;;;;;;;;;;6.20;89.80;;;;;;5017678;28;19952;-90
2023/04/08 01:11:30;;;;;;;;;;;6.20;89.80;;;;;;5011671;28;20310;-89
2023/04/08 01:13:56;;;;;;;;;;;6.20;89.80;;;;;;5024684;28;19917;-94
2023/04/08 01:16:24;;;;;;;;;;;6.30;89.80;;;;;;5023657;28;19928;-90
2023/04/08 01:18:50;;;;;;;;;;;6.30;90.00;;;;;;5018569;28;19913;-92
2023/04/08 01:21:17;;;;;;;;;;;6.40;90.30;;;;;;5036028;28;20400;-90
2023/04/08 01:23:53;;;;;;;;;;;6.30;89.70;;;;;;5023309;28;19921;-91
2023/04/08 01:26:23;;;;;;;;;;;6.20;90.10;;;;;;5035264;28;19921;-91
2023/04/08 01:29:02;;;;;;;;;;;6.20;89.90;;;;;;5032446;28;19920;-94
2023/04/08 01:31:27;;;;;;;;;;;6.10;90.10;;;;;;5032430;28;19996;-90
2023/04/08 01:33:54;;;;;;;;;;;6.10;90.20;;;;;;5030445;28;19953;-90
2023/04/08 01:36:20;;;;;;;;;;;6.10;90.40;;;;;;5024513;28;19917;-90
2023/04/08 01:38:47;;;;;;;;;;;6.10;90.60;;;;;;5020197;28;20020;-90
2023/04/08 01:41:16;;;;;;;;;;;6.10;90.70;;;;;;5026076;28;19949;-90
2023/04/08 01:43:42;;;;;;;;;;;6.20;90.70;;;;;;5013950;28;19920;-90
2023/04/08 01:46:08;;;;;;;;;;;6.20;90.50;;;;;;5028600;28;19914;-91
2023/04/08 01:48:34;;;;;;;;;;;6.30;90.40;;;;;;5022035;28;19925;-90
2023/04/08 01:51:01;;;;;;;;;;;6.20;90.50;;;;;;5017970;28;19922;-89
2023/04/08 01:53:27;;;;;;;;;;;6.30;90.70;;;;;;5015862;28;19985;-90
2023/04/08 01:55:56;;;;;;;;;;;6.30;90.80;;;;;;5024225;28;19953;-91
2023/04/08 01:58:21;;;;;;;;;;;6.20;90.70;;;;;;5030135;28;19956;-91
2023/04/08 02:00:47;;;;;;;;;;;6.30;90.40;;;;;;5011906;28;19936;-91
2023/04/08 02:03:16;;;;;;;;;;;6.30;90.50;;;;;;5026456;28;19980;-90
2023/04/08 02:05:41;;;;;;;;;;;6.30;90.40;;;;;;5014117;28;19960;-92
2023/04/08 02:08:07;;;;;;;;;;;6.30;90.40;;;;;;5017546;28;19964;-90
2023/04/08 02:10:32;;;;;;;;;;;6.20;90.40;;;;;;5018834;28;19993;-90
2023/04/08 02:12:58;;;;;;;;;;;6.10;90.40;;;;;;5011765;28;19980;-90
2023/04/08 02:15:25;;;;;;;;;;;6.10;90.10;;;;;;5025076;28;19936;-90
2023/04/08 02:17:55;;;;;;;;;;;6.00;90.20;;;;;;5018098;28;20389;-91
2023/04/08 02:20:30;;;;;;;;;;;6.00;90.30;;;;;;5026854;28;19965;-91
2023/04/08 02:23:06;;;;;;;;;;;5.80;90.50;;;;;;5033736;28;19976;-90
2023/04/08 02:25:34;;;;;;;;;;;5.90;90.90;;;;;;5017250;28;19913;-90
2023/04/08 03:35:41;;;;;;;;;;;6.00;91.60;;;;;;5033377;28;19955;-90
2023/04/08 03:38:07;;;;;;;;;;;6.00;91.60;;;;;;5037720;28;19918;-89
2023/04/08 03:40:35;;;;;;;;;;;5.90;91.50;;;;;;5014104;28;19945;-89
2023/04/08 03:43:01;;;;;;;;;;;5.90;91.60;;;;;;5026818;28;19917;-89
2023/04/08 03:48:46;;;;;;;;;;;5.80;91.60;;;;;;5010408;28;19926;-89
2023/04/08 03:51:21;;;;;;;;;;;5.80;91.60;;;;;;5007894;28;19976;-89
2023/04/08 03:53:57;;;;;;;;;;;5.80;91.70;;;;;;5008394;28;19924;-89
2023/04/08 03:56:28;;;;;;;;;;;5.80;91.70;;;;;;5023733;28;19921;-90
2023/04/08 03:58:54;;;;;;;;;;;5.80;91.80;;;;;;5011648;28;20067;-89
2023/04/08 04:01:20;;;;;;;;;;;5.80;91.80;;;;;;5011783;28;19956;-89
2023/04/08 04:03:45;;;;;;;;;;;5.80;91.90;;;;;;5013040;28;20544;-88
2023/04/08 04:06:11;;;;;;;;;;;5.80;91.80;;;;;;5005502;28;19913;-88
2023/04/08 04:08:36;;;;;;;;;;;5.80;91.70;;;;;;5013032;28;19914;-88
2023/04/08 04:11:04;;;;;;;;;;;5.80;91.40;;;;;;5008236;28;19913;-89
2023/04/08 04:13:31;;;;;;;;;;;5.80;91.70;;;;;;5012199;28;20059;-89
2023/04/08 04:15:57;;;;;;;;;;;5.90;91.60;;;;;;5012827;28;19971;-89
2023/04/08 04:18:22;;;;;;;;;;;5.80;91.30;;;;;;5013672;28;19917;-89
2023/04/08 04:20:48;;;;;;;;;;;5.80;91.30;;;;;;5027429;28;20323;-89
2023/04/08 04:23:16;;;;;;;;;;;5.80;91.40;;;;;;5011404;28;19913;-89
2023/04/08 04:25:44;;;;;;;;;;;5.80;91.60;;;;;;5014002;28;20375;-88
2023/04/08 04:28:09;;;;;;;;;;;5.80;91.60;;;;;;5018402;28;19964;-89
2023/04/08 04:30:38;;;;;;;;;;;5.80;91.80;;;;;;5016941;28;19914;-88
2023/04/08 04:33:04;;;;;;;;;;;5.90;91.60;;;;;;5021447;28;19914;-89
2023/04/08 04:35:30;;;;;;;;;;;5.90;91.60;;;;;;5032258;28;19931;-89
2023/04/08 04:37:56;;;;;;;;;;;5.90;91.80;;;;;;5027051;28;19913;-90
2023/04/08 04:40:22;;;;;;;;;;;5.90;91.50;;;;;;5018323;28;19917;-89
2023/04/08 04:42:47;;;;;;;;;;;5.90;91.50;;;;;;5038458;28;19920;-89
2023/04/08 04:45:13;;;;;;;;;;;5.90;91.70;;;;;;5018930;28;19954;-88
2023/04/08 04:47:39;;;;;;;;;;;5.90;91.60;;;;;;5023574;28;19929;-89
2023/04/08 04:50:07;;;;;;;;;;;5.80;91.70;;;;;;5014270;28;19969;-89
2023/04/08 04:52:35;;;;;;;;;;;5.80;91.70;;;;;;5013657;28;19981;-89
2023/04/08 04:55:04;;;;;;;;;;;5.80;91.40;;;;;;5017924;28;19913;-89
2023/04/08 04:57:30;;;;;;;;;;;5.90;91.60;;;;;;5030224;28;19909;-89
2023/04/08 04:59:55;;;;;;;;;;;5.80;91.50;;;;;;5032262;28;20012;-89
2023/04/08 05:02:21;;;;;;;;;;;5.90;91.60;;;;;;5022561;28;20016;-89
2023/04/08 05:04:46;;;;;;;;;;;5.90;91.40;;;;;;5021297;28;19984;-89
2023/04/08 05:07:12;;;;;;;;;;;5.90;91.80;;;;;;5011985;28;19914;-89
2023/04/08 05:09:38;;;;;;;;;;;5.90;91.60;;;;;;5014450;28;19913;-88
2023/04/08 05:12:04;;;;;;;;;;;5.90;91.70;;;;;;5013912;28;19920;-87
2023/04/08 05:14:30;;;;;;;;;;;6.00;91.80;;;;;;5025191;28;19921;-89
2023/04/08 05:16:56;;;;;;;;;;;6.00;91.30;;;;;;5024880;28;20464;-88
2023/04/08 05:19:21;;;;;;;;;;;5.90;91.40;;;;;;5020047;28;19913;-88
2023/04/08 05:21:50;;;;;;;;;;;5.90;91.50;;;;;;5020906;28;19933;-88
2023/04/08 05:24:15;;;;;;;;;;;6.00;91.50;;;;;;5015878;28;20218;-88
2023/04/08 05:26:41;;;;;;;;;;;6.00;91.00;;;;;;5034524;28;19917;-87
2023/04/08 05:29:06;;;;;;;;;;;5.90;90.90;;;;;;5016683;28;20285;-88
2023/04/08 05:31:32;;;;;;;;;;;5.90;91.40;;;;;;5020775;28;19919;-87
2023/04/08 05:33:58;;;;;;;;;;;6.10;91.30;;;;;;5016744;28;19917;-88
2023/04/08 05:36:23;;;;;;;;;;;6.10;91.30;;;;;;5018996;28;19917;-89
2023/04/08 05:38:49;;;;;;;;;;;6.10;91.20;;;;;;5018525;28;19920;-87
2023/04/08 05:41:14;;;;;;;;;;;6.20;91.20;;;;;;5014279;28;21341;-88
2023/04/08 05:43:43;;;;;;;;;;;6.20;91.30;;;;;;5017276;28;19920;-88
2023/04/08 05:46:09;;;;;;;;;;;6.10;91.20;;;;;;5014996;28;19913;-89
2023/04/08 05:48:34;;;;;;;;;;;6.10;91.40;;;;;;5016415;28;19913;-88
2023/04/08 05:51:00;;;;;;;;;;;6.10;91.50;;;;;;5019361;28;20379;-88
2023/04/08 05:53:26;;;;;;;;;;;5.90;90.90;;;;;;5018008;28;20016;-89
2023/04/08 05:55:52;;;;;;;;;;;5.80;91.10;;;;;;5024073;28;20399;-88
2023/04/08 05:58:17;;;;;;;;;;;5.70;91.00;;;;;;5038436;28;19909;-89
2023/04/08 06:00:43;;;;;;;;;;;5.70;91.50;;;;;;5020107;28;19913;-88
2023/04/08 06:03:08;;;;;;;;;;;5.80;91.40;;;;;;5020461;28;20664;-88
2023/04/08 06:05:34;;;;;;;;;;;5.90;91.50;;;;;;5015570;28;19913;-89
2023/04/08 06:07:59;;;;;;;;;;;6.00;91.40;;;;;;5017403;28;19914;-88
2023/04/08 06:10:25;;;;;;;;;;;6.00;91.30;;;;;;5014070;28;19921;-89
2023/04/08 06:12:50;;;;;;;;;;;6.10;91.40;;;;;;5013845;28;19983;-89
2023/04/08 06:15:16;;;;;;;;;;;6.10;91.20;;;;;;5016092;28;19925;-89
2023/04/08 06:17:41;;;;;;;;;;;6.20;91.00;;;;;;5011732;28;20279;-86
2023/04/08 06:20:10;;;;;;;;;;;6.20;91.00;;;;;;5033205;28;19945;-89
2023/04/08 06:22:36;;;;;;;;;;;6.30;90.80;;;;;;5010655;28;19914;-87
2023/04/08 06:25:02;;;;;;;;;;;6.50;90.90;;;;;;5008525;28;19967;-87
2023/04/08 06:27:27;;;;;;;;;;;6.60;90.20;;;;;;5033226;28;19913;-86
2023/04/08 06:29:54;;;;;;;;;;;6.60;89.60;;;;;;5023684;28;19913;-88
2023/04/08 06:32:19;;;;;;;;;;;6.60;89.50;;;;;;5021862;28;20008;-88
2023/04/08 06:34:45;;;;;;;;;;;6.40;89.30;;;;;;5009982;28;20008;-88
2023/04/08 06:37:10;;;;;;;;;;;6.30;89.50;;;;;;5013417;28;19916;-87
2023/04/08 06:39:36;;;;;;;;;;;6.40;89.80;;;;;;5035199;28;19914;-88
2023/04/08 06:42:01;;;;;;;;;;;6.40;89.90;;;;;;5014876;28;20298;-87
2023/04/08 06:44:27;;;;;;;;;;;6.50;89.60;;;;;;5039152;28;19920;-87
2023/04/08 06:46:52;;;;;;;;;;;6.60;89.40;;;;;;5010807;28;20008;-86
2023/04/08 06:49:26;;;;;;;;;;;6.60;89.60;;;;;;5008433;28;19913;-89
2023/04/08 06:51:54;;;;;;;;;;;6.60;89.20;;;;;;5015563;28;20826;-90
2023/04/08 06:54:20;;;;;;;;;;;6.70;89.20;;;;;;5017911;28;19967;-87
2023/04/08 06:56:45;;;;;;;;;;;6.60;88.70;;;;;;5031540;28;19947;-87
2023/04/08 06:59:11;;;;;;;;;;;6.50;88.80;;;;;;5029800;28;19960;-86
2023/04/08 07:01:36;;;;;;;;;;;6.70;88.70;;;;;;5011505;28;19913;-86
2023/04/08 07:04:02;;;;;;;;;;;6.70;88.60;;;;;;5012649;28;19959;-85
2023/04/08 07:06:27;;;;;;;;;;;6.90;88.70;;;;;;5009452;28;19917;-87
2023/04/08 07:08:53;;;;;;;;;;;7.00;88.60;;;;;;5015343;28;19913;-86
2023/04/08 07:11:18;;;;;;;;;;;7.00;87.90;;;;;;5011535;28;19917;-87
2023/04/08 07:13:44;;;;;;;;;;;7.10;87.50;;;;;;5014138;28;19953;-87
2023/04/08 07:16:09;;;;;;;;;;;7.20;87.50;;;;;;5015456;28;19924;-87
2023/04/08 07:18:35;;;;;;;;;;;7.40;87.50;;;;;;5017019;28;20374;-86
2023/04/08 07:21:29;;;;;;;;;;;7.50;87.00;;;;;;5025794;28;19928;-90
2023/04/08 07:23:54;;;;;;;;;;;7.60;86.90;;;;;;5028716;28;19920;-87
2023/04/08 07:26:21;;;;;;;;;;;7.70;87.00;;;;;;5021567;28;19913;-88
2023/04/08 07:28:46;;;;;;;;;;;7.70;86.20;;;;;;5013868;28;20349;-88
2023/04/08 07:31:12;;;;;;;;;;;7.70;86.00;;;;;;5013945;28;19928;-88
2023/04/08 07:33:38;;;;;;;;;;;7.60;84.90;;;;;;5014967;28;19917;-88
2023/04/08 07:36:04;;;;;;;;;;;7.60;84.80;;;;;;5022219;28;20432;-89
2023/04/08 07:38:29;;;;;;;;;;;7.40;84.80;;;;;;5015065;28;20389;-89
2023/04/08 07:41:03;;;;;;;;;;;7.40;84.40;;;;;;5016146;28;19910;-88
2023/04/08 07:43:44;;;;;;;;;;;7.40;86.10;;;;;;5012406;28;19960;-91
2023/04/08 07:46:10;;;;;;;;;;;7.30;87.00;;;;;;5009739;28;19913;-90
2023/04/08 07:48:36;;;;;;;;;;;7.60;86.60;;;;;;5023743;28;19975;-88
2023/04/08 07:51:02;;;;;;;;;;;7.50;86.10;;;;;;5017011;28;19917;-91
2023/04/08 07:53:34;;;;;;;;;;;7.40;86.30;;;;;;5015137;28;19913;-90
2023/04/08 07:56:00;;;;;;;;;;;7.30;85.90;;;;;;5018309;28;20047;-86
2023/04/08 07:58:25;;;;;;;;;;;7.30;86.30;;;;;;5009207;28;20000;-87
2023/04/08 08:00:51;;;;;;;;;;;7.30;86.50;;;;;;5008380;28;19920;-87
2023/04/08 08:03:16;;;;;;;;;;;7.40;85.50;;;;;;5017179;28;19913;-86
2023/04/08 08:05:42;;;;;;;;;;;7.60;86.10;;;;;;5011564;28;19969;-87
2023/04/08 08:08:10;;;;;;;;;;;7.70;85.00;;;;;;5020066;28;20371;-86
2023/04/08 08:10:39;;;;;;;;;;;7.80;84.60;;;;;;5017709;28;19913;-86
2023/04/08 08:13:05;;;;;;;;;;;7.80;83.30;;;;;;5032040;28;19917;-86
2023/04/08 08:15:31;;;;;;;;;;;7.70;82.40;;;;;;5021994;28;19985;-88
2023/04/08 08:17:56;;;;;;;;;;;7.60;82.70;;;;;;5020693;28;19913;-86
2023/04/08 08:20:22;;;;;;;;;;;7.60;83.30;;;;;;5017293;28;19917;-85
2023/04/08 08:22:47;;;;;;;;;;;7.60;82.80;;;;;;5033188;28;19917;-87
2023/04/08 08:25:13;;;;;;;;;;;7.60;82.60;;;;;;5012511;28;19913;-85
2023/04/08 08:27:40;;;;;;;;;;;7.60;83.20;;;;;;5035441;28;20007;-89
2023/04/08 08:30:06;;;;;;;;;;;7.60;83.30;;;;;;5025109;28;19944;-89
2023/04/08 08:32:32;;;;;;;;;;;7.60;82.60;;;;;;5028587;28;20589;-84
2023/04/08 08:34:57;;;;;;;;;;;7.80;83.20;;;;;;5038385;28;19924;-87
2023/04/08 08:37:23;;;;;;;;;;;7.70;82.10;;;;;;5033526;28;19917;-85
2023/04/08 08:39:48;;;;;;;;;;;7.60;82.40;;;;;;5019999;28;19952;-85
2023/04/08 08:42:21;;;;;;;;;;;7.60;83.10;;;;;;5019680;28;19913;-89
2023/04/08 08:44:47;;;;;;;;;;;7.60;83.40;;;;;;5021915;28;20271;-87
2023/04/08 08:47:12;;;;;;;;;;;7.80;83.70;;;;;;5012050;28;19945;-88
2023/04/08 08:49:38;;;;;;;;;;;7.90;83.70;;;;;;5041945;28;19907;-89
2023/04/08 08:52:03;;;;;;;;;;;8.00;82.50;;;;;;5041326;28;19940;-89
2023/04/08 08:54:30;;;;;;;;;;;8.10;81.50;;;;;;5040210;28;20016;-88
2023/04/08 08:56:56;;;;;;;;;;;8.20;81.70;;;;;;5032933;28;19926;-88
2023/04/08 08:59:22;;;;;;;;;;;8.40;81.80;;;;;;5019926;28;19924;-89
2023/04/08 09:01:48;;;;;;;;;;;8.50;81.80;;;;;;5024419;28;19910;-87
2023/04/08 09:04:15;;;;;;;;;;;8.50;80.70;;;;;;5024020;28;19914;-88
2023/04/08 09:06:41;;;;;;;;;;;8.40;80.00;;;;;;5032647;28;19913;-88
2023/04/08 09:09:09;;;;;;;;;;;8.60;79.90;;;;;;5035448;28;19909;-88
2023/04/08 09:11:39;;;;;;;;;;;8.70;78.30;;;;;;5020793;28;19913;-88
2023/04/08 09:14:06;;;;;;;;;;;8.80;77.30;;;;;;5018554;28;19909;-89
2023/04/08 09:16:32;;;;;;;;;;;8.60;77.50;;;;;;5022237;28;19928;-89
2023/04/08 09:19:07;;;;;;;;;;;8.50;78.40;;;;;;5022813;28;19909;-89
2023/04/08 09:21:33;;;;;;;;;;;8.40;77.60;;;;;;5019705;28;19920;-88
2023/04/08 09:23:59;;;;;;;;;;;8.30;77.90;;;;;;5050753;28;19918;-88
2023/04/08 09:26:26;;;;;;;;;;;8.30;79.40;;;;;;5032535;28;19913;-88
2023/04/08 09:29:05;;;;;;;;;;;8.10;79.30;;;;;;5028097;28;19935;-88
2023/04/08 09:31:32;;;;;;;;;;;8.20;79.60;;;;;;5019914;28;19991;-87
2023/04/08 09:33:59;;;;;;;;;;;8.10;79.80;;;;;;5018514;28;19925;-87
2023/04/08 09:36:27;;;;;;;;;;;8.20;80.20;;;;;;5036398;28;19921;-88
2023/04/08 09:38:54;;;;;;;;;;;8.10;81.50;;;;;;5018873;28;19913;-87
2023/04/08 09:41:20;;;;;;;;;;;8.20;81.00;;;;;;5035819;28;19913;-88
2023/04/08 09:44:04;;;;;;;;;;;8.20;81.00;;;;;;5016885;28;19919;-88
2023/04/08 09:46:48;;;;;;;;;;;8.40;81.20;;;;;;5018227;28;20008;-87
2023/04/08 09:49:28;;;;;;;;;;;8.40;79.60;;;;;;5051184;28;19909;-88
2023/04/08 09:52:09;;;;;;;;;;;8.40;78.30;;;;;;5025837;28;19913;-89
2023/04/08 09:54:43;;;;;;;;;;;8.50;79.10;;;;;;5035561;28;20209;-88
2023/04/08 09:57:10;;;;;;;;;;;8.50;78.70;;;;;;5026358;28;19996;-87
2023/04/08 09:59:37;;;;;;;;;;;8.30;79.00;;;;;;5018696;28;19996;-88
2023/04/08 10:02:08;;;;;;;;;;;8.20;79.50;;;;;;5017469;28;19964;-87
2023/04/08 10:04:37;;;;;;;;;;;8.10;79.80;;;;;;5012608;28;20289;-88
2023/04/08 10:07:03;;;;;;;;;;;8.30;80.50;;;;;;5041994;28;19917;-88
2023/04/08 10:09:29;;;;;;;;;;;8.40;79.90;;;;;;5032228;28;19917;-88
2023/04/08 10:11:54;;;;;;;;;;;8.50;80.10;;;;;;5024132;28;20401;-88
2023/04/08 10:14:21;;;;;;;;;;;8.60;80.50;;;;;;5008274;28;19913;-88
2023/04/08 10:16:46;;;;;;;;;;;8.80;79.70;;;;;;5036041;28;20298;-88
2023/04/08 10:19:31;;;;;;;;;;;8.70;79.50;;;;;;5015084;28;20016;-86
2023/04/08 10:21:56;;;;;;;;;;;8.90;79.60;;;;;;5032551;28;20394;-86
2023/04/08 10:24:24;;;;;;;;;;;8.80;80.00;;;;;;5016733;28;19917;-86
2023/04/08 10:26:50;;;;;;;;;;;8.80;80.00;;;;;;5033088;28;19913;-88
2023/04/08 10:29:18;;;;;;;;;;;9.10;80.20;;;;;;5034633;28;20379;-87
2023/04/08 10:31:44;;;;;;;;;;;9.20;78.80;;;;;;5015409;28;19917;-88
2023/04/08 10:34:20;;;;;;;;;;;9.10;79.70;;;;;;5036201;28;19909;-93
2023/04/08 10:39:37;;;;;;;;;;;9.00;79.70;;;;;;5082547;23;20083;-83
2023/04/08 10:42:02;;;;;;;;;;;9.00;80.20;;;;;;5066966;28;19913;-84
2023/04/08 10:44:28;;;;;;;;;;;9.10;79.80;;;;;;5068895;28;19917;-83
2023/04/08 10:46:54;;;;;;;;;;;9.10;79.10;;;;;;5060965;28;19923;-80
2023/04/08 10:49:20;;;;;;;;;;;9.30;80.60;;;;;;5055790;28;19921;-79
2023/04/08 10:51:46;;;;;;;;;;;9.40;80.00;;;;;;5048833;28;19958;-79
2023/04/08 10:54:16;;;;;;;;;;;9.40;79.20;;;;;;5054395;28;19913;-79
2023/04/08 10:56:46;;;;;;;;;;;9.50;78.70;;;;;;5053420;28;19920;-79
2023/04/08 10:59:15;;;;;;;;;;;9.70;79.00;;;;;;5053045;28;19912;-81
2023/04/08 11:01:40;;;;;;;;;;;9.80;78.00;;;;;;5052785;28;20016;-79
2023/04/08 11:04:10;;;;;;;;;;;10.00;78.10;;;;;;5051981;28;20381;-81
2023/04/08 11:06:36;;;;;;;;;;;10.10;77.70;;;;;;5063505;28;19912;-80
2023/04/08 11:09:03;;;;;;;;;;;10.50;77.40;;;;;;5055854;28;19951;-80
2023/04/08 11:11:30;;;;;;;;;;;10.40;75.70;;;;;;5057389;28;20003;-79
2023/04/08 11:13:56;;;;;;;;;;;10.10;76.80;;;;;;5054335;28;19913;-80
2023/04/08 11:16:21;;;;;;;;;;;10.20;77.20;;;;;;5055722;28;19936;-80
2023/04/08 11:18:47;;;;;;;;;;;10.30;77.10;;;;;;5055556;28;19917;-79
2023/04/08 11:21:12;;;;;;;;;;;10.10;76.70;;;;;;5049039;28;20456;-80
2023/04/08 11:23:38;;;;;;;;;;;10.20;76.80;;;;;;5062799;28;19913;-79
2023/04/08 11:26:03;;;;;;;;;;;10.10;77.60;;;;;;5061711;28;19919;-82
2023/04/08 11:28:29;;;;;;;;;;;10.10;77.00;;;;;;5048495;28;20376;-81
2023/04/08 11:30:56;;;;;;;;;;;10.10;76.90;;;;;;5030228;28;20326;-83
2023/04/08 11:33:28;;;;;;;;;;;10.30;77.30;;;;;;5033441;28;19948;-81
2023/04/08 11:35:53;;;;;;;;;;;10.10;77.40;;;;;;5032743;28;20360;-82
2023/04/08 11:38:23;;;;;;;;;;;10.30;78.20;;;;;;5035032;28;19942;-80
2023/04/08 11:40:53;;;;;;;;;;;10.40;78.90;;;;;;5034403;28;19913;-82
2023/04/08 11:43:19;;;;;;;;;;;10.60;77.80;;;;;;5037224;28;19920;-81
2023/04/08 11:45:44;;;;;;;;;;;10.60;76.40;;;;;;5038938;28;19958;-81
2023/04/08 11:48:10;;;;;;;;;;;10.70;77.10;;;;;;5039265;28;19917;-82
2023/04/08 11:50:36;;;;;;;;;;;10.60;74.60;;;;;;5042087;28;19968;-81
2023/04/08 11:53:01;;;;;;;;;;;10.70;74.20;;;;;;5037506;28;20412;-81
2023/04/08 11:55:28;;;;;;;;;;;10.60;74.70;;;;;;5035114;28;19920;-81
2023/04/08 11:57:54;;;;;;;;;;;10.60;74.70;;;;;;5037384;28;19926;-80
2023/04/08 12:00:20;;;;;;;;;;;10.50;76.10;;;;;;5039189;28;20433;-81
2023/04/08 12:02:46;;;;;;;;;;;10.50;76.00;;;;;;5039209;28;19963;-80
2023/04/08 12:05:12;;;;;;;;;;;10.60;75.90;;;;;;5042001;28;19944;-79
2023/04/08 12:07:38;;;;;;;;;;;10.50;75.10;;;;;;5040910;28;19919;-80
2023/04/08 12:10:04;;;;;;;;;;;10.60;74.20;;;;;;5030876;28;19913;-79
2023/04/08 12:12:30;;;;;;;;;;;10.70;75.50;;;;;;5043556;28;19917;-85
2023/04/08 12:14:55;;;;;;;;;;;10.80;75.20;;;;;;5049087;28;19913;-83
2023/04/08 12:17:21;;;;;;;;;;;11.00;75.10;;;;;;5048654;28;19921;-79
2023/04/08 12:19:46;;;;;;;;;;;10.90;75.90;;;;;;5045236;28;19912;-80
2023/04/08 12:22:12;;;;;;;;;;;10.60;75.60;;;;;;5049389;28;19913;-79
2023/04/08 12:24:37;;;;;;;;;;;10.40;76.10;;;;;;5048498;28;19912;-78
2023/04/08 12:27:03;;;;;;;;;;;10.10;76.90;;;;;;5056573;28;19979;-79
2023/04/08 12:29:29;;;;;;;;;;;10.00;77.50;;;;;;5049450;28;19921;-79
2023/04/08 12:31:55;;;;;;;;;;;10.00;78.70;;;;;;5050309;28;19924;-79
2023/04/08 12:34:21;;;;;;;;;;;10.00;77.50;;;;;;5047048;28;19962;-81
2023/04/08 12:36:48;;;;;;;;;;;10.10;76.90;;;;;;5047954;28;19960;-81
2023/04/08 12:39:13;;;;;;;;;;;10.40;76.90;;;;;;5050675;28;20351;-81
2023/04/08 12:41:39;;;;;;;;;;;10.60;76.30;;;;;;5050468;28;19912;-80
2023/04/08 12:44:04;;;;;;;;;;;10.60;76.10;;;;;;5044263;28;20315;-79
2023/04/08 12:46:30;;;;;;;;;;;10.80;76.00;;;;;;5043853;28;19916;-81
2023/04/08 12:48:55;;;;;;;;;;;10.90;76.20;;;;;;5046628;28;20012;-82
2023/04/08 12:51:21;;;;;;;;;;;11.10;75.20;;;;;;5039340;28;19920;-81
2023/04/08 12:53:46;;;;;;;;;;;11.20;75.50;;;;;;5038089;28;19913;-81
2023/04/08 12:56:12;;;;;;;;;;;11.10;73.40;;;;;;5045776;28;19916;-82
2023/04/08 12:58:37;;;;;;;;;;;11.10;74.60;;;;;;5056056;28;19963;-79
2023/04/08 13:01:03;;;;;;;;;;;11.00;74.40;;;;;;5060314;28;19936;-79
2023/04/08 13:03:30;;;;;;;;;;;11.10;75.10;;;;;;5048083;28;19956;-79
2023/04/08 13:05:57;;;;;;;;;;;11.10;75.00;;;;;;5053309;28;20403;-80
2023/04/08 13:08:23;;;;;;;;;;;11.10;75.10;;;;;;5049371;28;19913;-82
2023/04/08 13:10:49;;;;;;;;;;;11.00;75.30;;;;;;5043850;28;19951;-81
2023/04/08 13:13:15;;;;;;;;;;;10.90;74.50;;;;;;5048937;28;19913;-80
2023/04/08 13:15:40;;;;;;;;;;;10.80;75.00;;;;;;5043638;28;19913;-78
2023/04/08 13:18:06;;;;;;;;;;;11.10;74.70;;;;;;5040165;28;20486;-79
2023/04/08 13:20:32;;;;;;;;;;;11.30;74.30;;;;;;5035937;28;20016;-78
2023/04/08 13:22:59;;;;;;;;;;;11.50;72.90;;;;;;5033218;28;20569;-79
2023/04/08 13:25:24;;;;;;;;;;;11.50;73.00;;;;;;5039121;28;19913;-79
2023/04/08 13:27:50;;;;;;;;;;;11.10;74.00;;;;;;5041324;28;19939;-79
2023/04/08 13:30:15;;;;;;;;;;;11.10;74.90;;;;;;5051810;28;19921;-79
2023/04/08 13:32:41;;;;;;;;;;;11.00;74.40;;;;;;5046294;28;19913;-79
2023/04/08 13:35:07;;;;;;;;;;;11.00;74.30;;;;;;5041972;28;19913;-79
2023/04/08 13:37:32;;;;;;;;;;;10.80;75.10;;;;;;5053738;28;19917;-80
2023/04/08 13:39:58;;;;;;;;;;;10.60;75.90;;;;;;5071032;28;19917;-80
2023/04/08 13:42:23;;;;;;;;;;;10.60;76.50;;;;;;5067819;28;20396;-80
2023/04/08 13:44:49;;;;;;;;;;;10.80;75.70;;;;;;5048532;28;19913;-80
2023/04/08 13:47:15;;;;;;;;;;;10.60;77.40;;;;;;5049404;28;20403;-79
2023/04/08 13:49:40;;;;;;;;;;;10.50;77.80;;;;;;5052988;28;19966;-79
2023/04/08 13:52:06;;;;;;;;;;;10.50;78.30;;;;;;5046496;28;19913;-78
2023/04/08 13:54:32;;;;;;;;;;;10.50;77.60;;;;;;5052788;28;19917;-83
2023/04/08 13:56:57;;;;;;;;;;;10.40;78.00;;;;;;5056330;28;19913;-84
2023/04/08 13:59:23;;;;;;;;;;;10.60;77.40;;;;;;5055399;28;19921;-84
2023/04/08 14:01:52;;;;;;;;;;;10.50;77.40;;;;;;5062024;28;19909;-84
2023/04/08 14:04:19;;;;;;;;;;;10.50;77.30;;;;;;5052176;28;19917;-81
2023/04/08 14:06:45;;;;;;;;;;;10.60;76.50;;;;;;5053312;28;19909;-79
2023/04/08 14:09:10;;;;;;;;;;;10.50;77.20;;;;;;5048251;28;19935;-80
2023/04/08 14:11:36;;;;;;;;;;;10.50;77.30;;;;;;5035107;28;19928;-78
2023/04/08 14:14:01;;;;;;;;;;;10.50;77.70;;;;;;5047982;28;19913;-80
2023/04/08 14:16:28;;;;;;;;;;;10.60;78.10;;;;;;5043894;28;20284;-80
2023/04/08 14:18:54;;;;;;;;;;;10.60;77.70;;;;;;5050581;28;19976;-80
2023/04/08 14:21:20;;;;;;;;;;;10.70;77.50;;;;;;5048550;28;20461;-80
2023/04/08 14:23:45;;;;;;;;;;;10.60;76.10;;;;;;5047839;28;19920;-78
2023/04/08 14:26:11;;;;;;;;;;;10.60;76.90;;;;;;5049091;28;20309;-80
2023/04/08 14:28:36;;;;;;;;;;;10.40;77.80;;;;;;5038515;28;19961;-79
2023/04/08 14:31:03;;;;;;;;;;;10.40;78.40;;;;;;5041693;28;19916;-81
2023/04/08 14:33:29;;;;;;;;;;;10.40;78.40;;;;;;5044173;28;20372;-81
2023/04/08 14:35:54;;;;;;;;;;;10.40;78.80;;;;;;5043599;28;20381;-78
2023/04/08 14:38:20;;;;;;;;;;;10.50;79.20;;;;;;5059686;28;19917;-78
2023/04/08 14:40:45;;;;;;;;;;;10.40;78.50;;;;;;5052149;28;19935;-78
2023/04/08 14:43:12;;;;;;;;;;;10.40;78.40;;;;;;5058211;28;19927;-79
2023/04/08 14:45:37;;;;;;;;;;;10.60;77.00;;;;;;5054692;28;20292;-80
2023/04/08 14:48:03;;;;;;;;;;;10.60;77.60;;;;;;5051289;28;19917;-80
2023/04/08 14:50:30;;;;;;;;;;;10.60;77.90;;;;;;5057040;28;19916;-84
2023/04/08 14:52:56;;;;;;;;;;;10.70;77.70;;;;;;5051117;28;19913;-85
2023/04/08 14:55:21;;;;;;;;;;;10.90;77.10;;;;;;5052020;28;19989;-84
2023/04/08 14:57:47;;;;;;;;;;;10.80;77.20;;;;;;5046475;28;20445;-80
2023/04/08 15:00:12;;;;;;;;;;;10.70;77.20;;;;;;5047620;28;19922;-82
2023/04/08 15:02:38;;;;;;;;;;;10.60;78.20;;;;;;5048445;28;20015;-84
2023/04/08 15:05:04;;;;;;;;;;;10.70;78.30;;;;;;5047994;28;19943;-83
2023/04/08 15:07:31;;;;;;;;;;;10.60;77.20;;;;;;5048191;28;19912;-87
2023/04/08 15:09:56;;;;;;;;;;;10.60;78.10;;;;;;5053439;28;19919;-79
2023/04/08 15:12:22;;;;;;;;;;;10.70;77.70;;;;;;5041673;28;19983;-79
2023/04/08 15:14:47;;;;;;;;;;;10.70;77.40;;;;;;5047361;28;19917;-78
2023/04/08 15:17:12;;;;;;;;;;;10.80;78.70;;;;;;5042472;28;19917;-78
2023/04/08 15:19:38;;;;;;;;;;;10.90;78.20;;;;;;5052402;28;19916;-78
2023/04/08 15:22:03;;;;;;;;;;;11.00;77.50;;;;;;5048907;28;19917;-78
2023/04/08 15:24:29;;;;;;;;;;;11.00;77.40;;;;;;5067174;28;19975;-79
2023/04/08 15:26:55;;;;;;;;;;;10.80;77.60;;;;;;5051974;28;20424;-80
2023/04/08 15:29:22;;;;;;;;;;;10.90;77.60;;;;;;5044870;28;19909;-79
2023/04/08 15:31:47;;;;;;;;;;;11.00;76.70;;;;;;5048447;28;19920;-78
2023/04/08 15:34:12;;;;;;;;;;;11.00;77.30;;;;;;5042226;28;19909;-79
2023/04/08 15:36:38;;;;;;;;;;;10.90;76.80;;;;;;5046384;28;19917;-77